M I D A S
Marine Information and Data Acquisition System
Tripno 1430 of the Zeeleeuw from 2008-02-27 07:35:08 to 2008-02-27 15:52:09
Back to CruiseResearch ActivitiesStationsMapUnderway DataData graphs

EquipmentUnitsComment
TimeDGPSUTC
LatitudeDGPSDM.mWGS84
LongitudeDGPSDM.mWGS84
HeadingGyrodeg 
SOGDGPSknotsSpeed over ground
COGDGPSdegCourse over ground
DepthEcho soundermeters200 kHz
Missing or incorrect values are displayed as -999
Navigation data collected by the RV Zeeleeuw from 2008-02-27 07:37:18 to 2008-02-27 16:00:25
                                                                                    Next 1000 lines
Time Latitude Longitude Heading SOG COG Depth
2008-02-27 07:37:26 51°13.663 2°55.951 103.8 1 284 7.4
2008-02-27 07:37:31 51°13.664 2°55.948 103.4 1.5 285 7.4
2008-02-27 07:37:36 51°13.664 2°55.944 103.4 2 286 7.4
2008-02-27 07:37:41 51°13.665 2°55.94 103.8 2.4 286 7.7
2008-02-27 07:37:47 51°13.666 2°55.933 104.5 2.7 287 -999
2008-02-27 07:37:54 51°13.668 2°55.924 105.6 3.1 288 -999
2008-02-27 07:37:58 51°13.669 2°55.918 106.2 3.4 288 -999
2008-02-27 07:38:03 51°13.671 2°55.911 106.5 3.6 289 -999
2008-02-27 07:38:08 51°13.672 2°55.902 106.5 3.8 288 -999
2008-02-27 07:38:13 51°13.674 2°55.894 106 4 287 -999
2008-02-27 07:38:19 51°13.676 2°55.883 105.4 4.2 286 -999
2008-02-27 07:38:23 51°13.677 2°55.876 104.5 4.2 286 -999
2008-02-27 07:38:28 51°13.679 2°55.867 103.5 4.4 285 -999
2008-02-27 07:38:33 51°13.681 2°55.857 102.3 4.5 284 -999
2008-02-27 07:38:38 51°13.682 2°55.848 101.2 4.6 283 -999
2008-02-27 07:38:43 51°13.683 2°55.838 100.1 4.7 282 -999
2008-02-27 07:38:49 51°13.685 2°55.825 98.9 4.7 281 -999
2008-02-27 07:38:53 51°13.686 2°55.817 98.1 4.7 280 -999
2008-02-27 07:38:58 51°13.687 2°55.807 97.4 4.6 280 -999
2008-02-27 07:39:03 51°13.688 2°55.797 96.6 4.4 279 -999
2008-02-27 07:39:08 51°13.689 2°55.788 95.8 4.2 278 -999
2008-02-27 07:39:13 51°13.689 2°55.779 94.8 4 277 -999
2008-02-27 07:39:19 51°13.69 2°55.77 94 3.7 275 -999
2008-02-27 07:39:23 51°13.69 2°55.764 93 3.4 275 -999
2008-02-27 07:39:28 51°13.691 2°55.757 91.6 3.1 275 -999
2008-02-27 07:39:33 51°13.691 2°55.751 90.6 2.8 272 4.9
2008-02-27 07:39:38 51°13.691 2°55.745 89.3 2.4 272 12.8
2008-02-27 07:39:43 51°13.691 2°55.741 87.5 2 270 12.6
2008-02-27 07:39:48 51°13.691 2°55.737 84.4 1.6 271 4.7
2008-02-27 07:39:53 51°13.691 2°55.735 81.4 1.2 269 -999
2008-02-27 07:39:57 51°13.691 2°55.733 78.2 0.8 275 12.7
2008-02-27 07:40:03 51°13.691 2°55.732 74.3 0.5 284 -999
2008-02-27 07:40:09 51°13.692 2°55.731 69.9 0.3 322 -999
2008-02-27 07:40:14 51°13.692 2°55.732 65.9 0.3 13 -999
2008-02-27 07:40:18 51°13.693 2°55.732 61.6 0.6 29 12.5
2008-02-27 07:40:23 51°13.693 2°55.733 58 0.8 35 12.5
2008-02-27 07:40:28 51°13.695 2°55.735 54.1 1.1 35 12.7
2008-02-27 07:40:33 51°13.696 2°55.736 50.1 1.3 32 12.7
2008-02-27 07:40:37 51°13.697 2°55.737 44.9 1.5 29 12.9
2008-02-27 07:40:42 51°13.699 2°55.739 39.5 1.6 24 13
2008-02-27 07:40:48 51°13.701 2°55.741 34 1.8 21 13
2008-02-27 07:40:54 51°13.705 2°55.742 28.4 1.9 16 13.6
2008-02-27 07:40:58 51°13.707 2°55.743 22.9 2 12 13.7
2008-02-27 07:41:02 51°13.709 2°55.743 17.3 2.1 8 13.7
2008-02-27 07:41:08 51°13.713 2°55.743 12.9 2.3 4 13.5
2008-02-27 07:41:12 51°13.716 2°55.743 6.4 2.4 358 13.6
2008-02-27 07:41:18 51°13.72 2°55.743 2.2 2.6 352 13.4
2008-02-27 07:41:22 51°13.723 2°55.742 356.3 2.8 348 13.2
2008-02-27 07:41:27 51°13.728 2°55.739 352 3.3 343 12.7
2008-02-27 07:41:32 51°13.733 2°55.736 345.7 3.8 336 12.7
2008-02-27 07:41:37 51°13.738 2°55.731 336.7 4.4 331 12.2
2008-02-27 07:41:42 51°13.744 2°55.725 332.1 5 329 11.9
2008-02-27 07:41:45 51°13.748 2°55.722 328.4 3.1 327 10.6
2008-02-27 07:41:50 51°13.756 2°55.715 326.5 1.1 326 10.2
2008-02-27 07:41:58 51°13.767 2°55.703 325.6 5.9 326 10.6
2008-02-27 07:42:02 51°13.773 2°55.696 325.3 6.8 326 10.7
2008-02-27 07:42:07 51°13.782 2°55.687 325.2 5.3 326 10.3
2008-02-27 07:42:12 51°13.79 2°55.678 325.3 7 326 10.5
2008-02-27 07:42:17 51°13.799 2°55.669 325.6 7.6 327 10.6
2008-02-27 07:42:22 51°13.808 2°55.66 327.2 7.8 328 10.8
2008-02-27 07:42:27 51°13.817 2°55.65 328.2 8 329 10.9
2008-02-27 07:42:32 51°13.827 2°55.641 328.9 8.2 329 11.1
2008-02-27 07:42:37 51°13.837 2°55.632 329.8 8.3 330 11.4
2008-02-27 07:42:42 51°13.848 2°55.623 330.7 8.5 331 -999
2008-02-27 07:42:46 51°13.856 2°55.616 331.7 8.6 332 11.7
2008-02-27 07:42:52 51°13.869 2°55.606 333 8.7 334 11.7
2008-02-27 07:42:57 51°13.88 2°55.597 333.8 8.7 334 11.6
2008-02-27 07:43:02 51°13.891 2°55.589 334.5 8.8 335 11.5
2008-02-27 07:43:05 51°13.897 2°55.584 335.1 8.9 335 11.1
2008-02-27 07:43:10 51°13.909 2°55.575 335.3 9 335 11.8
2008-02-27 07:43:15 51°13.92 2°55.567 335.7 9 336 11.9
2008-02-27 07:43:21 51°13.933 2°55.558 336.6 8.7 336 11.8
2008-02-27 07:43:26 51°13.944 2°55.551 336.4 8.2 336 12.1
2008-02-27 07:43:31 51°13.953 2°55.543 336.1 7.8 335 11.2
2008-02-27 07:43:36 51°13.963 2°55.537 336.2 7.4 336 11.1
2008-02-27 07:43:41 51°13.972 2°55.53 336.3 7.1 336 11.7
2008-02-27 07:43:46 51°13.98 2°55.524 336 6.8 336 12
2008-02-27 07:43:50 51°13.987 2°55.519 335.9 6.6 335 11.8
2008-02-27 07:43:55 51°13.995 2°55.514 335.6 6.3 336 11.9
2008-02-27 07:44:00 51°14.003 2°55.508 335.4 6.1 335 11.8
2008-02-27 07:44:04 51°14.009 2°55.504 335.3 6 335 11.8
2008-02-27 07:44:10 51°14.017 2°55.497 334.9 5.8 334 11.9
2008-02-27 07:44:15 51°14.024 2°55.491 334.2 5.6 334 11.9
2008-02-27 07:44:20 51°14.031 2°55.486 333.8 5.5 333 11.9
2008-02-27 07:44:25 51°14.038 2°55.481 333.5 5.5 334 11.9
2008-02-27 07:44:30 51°14.045 2°55.475 333.7 5.4 334 11.9
2008-02-27 07:44:35 51°14.052 2°55.47 333.9 5.4 334 11.9
2008-02-27 07:44:40 51°14.058 2°55.465 334.1 5.4 335 11.9
2008-02-27 07:44:45 51°14.065 2°55.46 334.2 5.4 334 12
2008-02-27 07:44:50 51°14.071 2°55.455 334.4 5.3 335 11.7
2008-02-27 07:44:55 51°14.078 2°55.45 334.5 5.4 334 11.5
2008-02-27 07:45:00 51°14.085 2°55.444 334.7 5.7 335 11.5
2008-02-27 07:45:05 51°14.093 2°55.439 334.8 6.1 334 11.9
2008-02-27 07:45:10 51°14.101 2°55.432 334.2 6.4 334 11.9
2008-02-27 07:45:15 51°14.11 2°55.426 334.1 6.9 335 11.7
2008-02-27 07:45:20 51°14.119 2°55.418 334.1 7.4 334 11.5
2008-02-27 07:45:25 51°14.129 2°55.41 334.1 7.9 333 11.8
2008-02-27 07:45:30 51°14.139 2°55.402 333.9 8.2 333 11.8
2008-02-27 07:45:35 51°14.15 2°55.392 332.6 8.6 331 12
2008-02-27 07:45:40 51°14.161 2°55.383 332.1 9.1 332 12
2008-02-27 07:45:45 51°14.172 2°55.372 331.6 9.4 330 12
2008-02-27 07:45:50 51°14.184 2°55.361 330.1 9.7 328 12
2008-02-27 07:45:54 51°14.193 2°55.351 329.4 9.9 328 12.1
2008-02-27 07:46:00 51°14.207 2°55.336 328.1 10.2 325 12.1
2008-02-27 07:46:06 51°14.221 2°55.32 326.1 10.4 324 12.1
2008-02-27 07:46:10 51°14.23 2°55.308 323.7 10.5 321 12
2008-02-27 07:46:15 51°14.241 2°55.292 320.8 10.8 318 11.9
2008-02-27 07:46:20 51°14.252 2°55.275 319 10.9 317 11.5
2008-02-27 07:46:25 51°14.263 2°55.258 318.3 11.1 317 11.2
2008-02-27 07:46:30 51°14.274 2°55.24 316.4 11.3 314 11.6
2008-02-27 07:46:35 51°14.285 2°55.222 314.7 11.3 313 11.4
2008-02-27 07:46:40 51°14.295 2°55.203 313.3 11.5 312 11.6
2008-02-27 07:46:45 51°14.306 2°55.183 312.3 11.6 311 11.6
2008-02-27 07:46:50 51°14.316 2°55.163 311.1 11.7 310 11.8
2008-02-27 07:46:55 51°14.326 2°55.143 310.3 11.8 309 12.1
2008-02-27 07:47:00 51°14.337 2°55.123 309.9 11.8 309 11.9
2008-02-27 07:47:05 51°14.347 2°55.102 309.5 11.8 308 11.7
2008-02-27 07:47:10 51°14.357 2°55.081 308.4 11.8 307 11.1
2008-02-27 07:47:15 51°14.366 2°55.059 306.7 11.9 306 11.7
2008-02-27 07:47:20 51°14.376 2°55.038 305.9 12 305 11.2
2008-02-27 07:47:25 51°14.385 2°55.016 306.1 12 305 11.2
2008-02-27 07:47:29 51°14.393 2°54.998 305.5 12.1 304 11.2
2008-02-27 07:47:34 51°14.403 2°54.976 305.4 12.1 305 11.1
2008-02-27 07:47:39 51°14.412 2°54.953 306.2 12.3 304 11.3
2008-02-27 07:47:44 51°14.421 2°54.93 305.7 12.4 302 11.2
2008-02-27 07:47:49 51°14.43 2°54.907 304.8 12.4 301 11.3
2008-02-27 07:47:54 51°14.439 2°54.883 304.5 12.5 301 11.3
2008-02-27 07:47:59 51°14.447 2°54.859 303.1 12.5 297 11.2
2008-02-27 07:48:04 51°14.455 2°54.834 301.8 12.6 297 11.3
2008-02-27 07:48:09 51°14.463 2°54.81 301.3 12.5 297 11.3
2008-02-27 07:48:15 51°14.473 2°54.78 301.5 12.6 297 11.3
2008-02-27 07:48:19 51°14.479 2°54.76 301.8 12.6 298 11.2
2008-02-27 07:48:25 51°14.49 2°54.731 302.3 12.6 299 11.1
2008-02-27 07:48:30 51°14.498 2°54.706 302.2 12.6 299 11.2
2008-02-27 07:48:34 51°14.505 2°54.687 302.6 12.5 300 11
2008-02-27 07:48:39 51°14.513 2°54.663 302.7 12.6 299 11.1
2008-02-27 07:48:44 51°14.522 2°54.638 302.2 12.6 299 11.1
2008-02-27 07:48:50 51°14.532 2°54.609 302.2 12.6 299 11
2008-02-27 07:48:54 51°14.539 2°54.59 302.1 12.7 298 11.3
2008-02-27 07:48:59 51°14.547 2°54.565 301.5 12.6 299 11
2008-02-27 07:49:04 51°14.556 2°54.541 301.3 12.6 299 11.1
2008-02-27 07:49:09 51°14.564 2°54.517 301.8 12.6 299 11
2008-02-27 07:49:14 51°14.573 2°54.493 302.1 12.6 299 11
2008-02-27 07:49:19 51°14.581 2°54.468 301.9 12.6 299 11
2008-02-27 07:49:24 51°14.589 2°54.444 301 12.6 298 11.2
2008-02-27 07:49:30 51°14.599 2°54.414 300.9 12.6 298 11
2008-02-27 07:49:34 51°14.606 2°54.395 300.1 12.7 298 11.4
2008-02-27 07:49:40 51°14.615 2°54.365 299.5 12.6 296 10.7
2008-02-27 07:49:45 51°14.623 2°54.34 299.2 12.5 297 10.9
2008-02-27 07:49:50 51°14.63 2°54.315 298.4 12.6 294 11
2008-02-27 07:49:55 51°14.638 2°54.29 297.2 12.5 295 10.7
2008-02-27 07:50:00 51°14.644 2°54.264 295.9 12.6 291 11
2008-02-27 07:50:05 51°14.65 2°54.238 294.1 12.6 292 11.1
2008-02-27 07:50:10 51°14.656 2°54.211 292.6 12.6 289 11.3
2008-02-27 07:50:14 51°14.66 2°54.19 290.9 12.7 288 11.3
2008-02-27 07:50:19 51°14.665 2°54.164 290.2 12.7 288 11.4
2008-02-27 07:50:24 51°14.67 2°54.137 289.2 12.8 286 11.6
2008-02-27 07:50:30 51°14.676 2°54.104 288.8 12.7 286 11.3
2008-02-27 07:50:34 51°14.68 2°54.083 288.7 12.7 286 11.3
2008-02-27 07:50:39 51°14.685 2°54.056 288.9 12.6 286 11.4
2008-02-27 07:50:44 51°14.69 2°54.029 289.2 12.7 286 11.5
2008-02-27 07:50:50 51°14.695 2°53.996 288 12.7 284 11.4
2008-02-27 07:50:55 51°14.7 2°53.969 287.5 12.8 285 11.5
2008-02-27 07:51:00 51°14.704 2°53.942 286.7 12.7 283 11.2
2008-02-27 07:51:05 51°14.708 2°53.915 286.2 12.6 283 11.2
2008-02-27 07:51:10 51°14.712 2°53.887 285.9 12.7 283 11.2
2008-02-27 07:51:15 51°14.716 2°53.86 285.8 12.6 283 11.2
2008-02-27 07:51:20 51°14.72 2°53.833 285.6 12.7 283 11
2008-02-27 07:51:25 51°14.723 2°53.806 284.6 12.6 282 10.6
2008-02-27 07:51:30 51°14.727 2°53.778 284 12.6 283 10.7
2008-02-27 07:51:34 51°14.729 2°53.756 283.4 12.6 281 10.6
2008-02-27 07:51:40 51°14.733 2°53.723 283 12.6 281 10.5
2008-02-27 07:51:45 51°14.736 2°53.696 282.7 12.6 281 10.5
2008-02-27 07:51:50 51°14.74 2°53.668 283.5 12.6 281 10.5
2008-02-27 07:51:55 51°14.742 2°53.641 282.2 12.7 279 10.6
2008-02-27 07:52:00 51°14.745 2°53.613 281.5 12.6 280 10.7
2008-02-27 07:52:05 51°14.747 2°53.585 280.6 12.7 277 10.7
2008-02-27 07:52:10 51°14.75 2°53.558 280.2 12.7 279 10.7
2008-02-27 07:52:15 51°14.752 2°53.53 279.6 12.7 277 10.7
2008-02-27 07:52:19 51°14.754 2°53.508 280.1 12.7 279 10.7
2008-02-27 07:52:25 51°14.757 2°53.475 280.5 12.6 278 10.7
2008-02-27 07:52:30 51°14.758 2°53.447 279.3 12.5 274 10.9
2008-02-27 07:52:35 51°14.757 2°53.42 273.9 12.6 268 10.8
2008-02-27 07:52:40 51°14.757 2°53.392 270.6 12.5 270 10.7
2008-02-27 07:52:45 51°14.757 2°53.364 271 12.6 269 10.7
2008-02-27 07:52:50 51°14.756 2°53.337 269.5 12.5 267 10.4
2008-02-27 07:52:55 51°14.755 2°53.309 268.1 12.5 266 10.4
2008-02-27 07:53:00 51°14.754 2°53.282 267.7 12.5 267 10.3
2008-02-27 07:53:05 51°14.753 2°53.254 267.5 12.5 266 9.9
2008-02-27 07:53:10 51°14.752 2°53.226 267.4 12.5 267 10
2008-02-27 07:53:15 51°14.75 2°53.199 267.3 12.6 266 9.8
2008-02-27 07:53:20 51°14.749 2°53.171 267.7 12.6 266 9.8
2008-02-27 07:53:25 51°14.748 2°53.143 267.7 12.7 266 9.8
2008-02-27 07:53:30 51°14.747 2°53.115 267.7 12.5 267 9.8
2008-02-27 07:53:34 51°14.746 2°53.093 268.4 12.7 267 9.8
2008-02-27 07:53:40 51°14.745 2°53.06 268.8 12.6 268 9.8
2008-02-27 07:53:45 51°14.745 2°53.031 269.3 12.7 268 10
2008-02-27 07:53:50 51°14.744 2°53.004 269.1 12.6 266 9.9
2008-02-27 07:53:55 51°14.742 2°52.976 267.7 12.6 266 9.8
2008-02-27 07:54:00 51°14.741 2°52.948 268.3 12.7 266 9.9
2008-02-27 07:54:05 51°14.74 2°52.92 268 12.7 266 10
2008-02-27 07:54:10 51°14.739 2°52.892 268 12.6 267 9.9
2008-02-27 07:54:15 51°14.738 2°52.864 268.2 12.7 266 9.9
2008-02-27 07:54:20 51°14.736 2°52.837 268.2 12.6 265 9.9
2008-02-27 07:54:25 51°14.734 2°52.809 267.4 12.6 262 9.7
2008-02-27 07:54:30 51°14.73 2°52.782 261.7 12.7 257 10
2008-02-27 07:54:35 51°14.726 2°52.755 258 12.6 257 9.8
2008-02-27 07:54:40 51°14.722 2°52.727 258.4 12.7 257 9.9
2008-02-27 07:54:45 51°14.717 2°52.7 257.7 12.8 255 10.1
2008-02-27 07:54:50 51°14.713 2°52.673 256.9 12.7 256 10.2
2008-02-27 07:54:55 51°14.709 2°52.646 256.8 12.7 255 10
2008-02-27 07:55:00 51°14.705 2°52.618 257 12.7 256 10
2008-02-27 07:55:05 51°14.7 2°52.591 257.1 12.7 255 10.1
2008-02-27 07:55:10 51°14.696 2°52.564 257.2 12.7 258 9.9
2008-02-27 07:55:15 51°14.691 2°52.537 258.2 12.8 255 10.1
2008-02-27 07:55:20 51°14.688 2°52.509 257.6 12.7 256 9.9
2008-02-27 07:55:25 51°14.683 2°52.482 257.4 12.8 256 9.8
2008-02-27 07:55:30 51°14.679 2°52.455 257.5 12.8 255 10
2008-02-27 07:55:35 51°14.675 2°52.427 257.1 12.9 257 10
2008-02-27 07:55:40 51°14.67 2°52.4 257.5 12.8 256 10.1
2008-02-27 07:55:45 51°14.666 2°52.372 257.6 12.9 256 10.1
2008-02-27 07:55:50 51°14.662 2°52.344 257.9 12.9 257 10.1
2008-02-27 07:55:54 51°14.659 2°52.322 257.8 12.9 257 10.1
2008-02-27 07:56:00 51°14.654 2°52.289 258.3 12.8 257 10.2
2008-02-27 07:56:05 51°14.649 2°52.261 257.8 12.9 255 10
2008-02-27 07:56:10 51°14.646 2°52.234 258 12.8 257 9.9
2008-02-27 07:56:15 51°14.64 2°52.206 257 12.9 253 10.1
2008-02-27 07:56:20 51°14.635 2°52.179 255.1 12.9 254 10.1
2008-02-27 07:56:25 51°14.63 2°52.152 254.8 12.8 253 10
2008-02-27 07:56:30 51°14.625 2°52.125 254.3 12.9 252 9.9
2008-02-27 07:56:35 51°14.62 2°52.098 253.5 12.8 254 10
2008-02-27 07:56:40 51°14.615 2°52.071 254.7 12.7 254 9.7
2008-02-27 07:56:45 51°14.61 2°52.044 254.9 12.7 254 10
2008-02-27 07:56:50 51°14.605 2°52.017 255.1 12.7 254 10
2008-02-27 07:56:55 51°14.6 2°51.99 255.4 12.8 255 10.2
2008-02-27 07:57:00 51°14.595 2°51.963 255.5 12.9 253 10.1
2008-02-27 07:57:05 51°14.591 2°51.935 256 12.7 257 10.1
2008-02-27 07:57:10 51°14.586 2°51.909 256.2 12.7 253 10.1
2008-02-27 07:57:15 51°14.581 2°51.881 255.4 12.7 255 10
2008-02-27 07:57:20 51°14.576 2°51.854 256.1 12.9 254 10.2
2008-02-27 07:57:25 51°14.571 2°51.827 256.1 12.7 254 10.2
2008-02-27 07:57:30 51°14.566 2°51.8 255.1 12.8 253 10
2008-02-27 07:57:35 51°14.562 2°51.773 255.2 12.8 255 9.9
2008-02-27 07:57:40 51°14.557 2°51.745 255.8 12.8 254 10
2008-02-27 07:57:45 51°14.552 2°51.718 255.5 12.9 255 10
2008-02-27 07:57:50 51°14.548 2°51.69 256.2 12.9 257 10.1
2008-02-27 07:57:55 51°14.544 2°51.663 257.7 12.9 255 10.3
2008-02-27 07:58:00 51°14.54 2°51.635 258.3 12.8 258 9.9
2008-02-27 07:58:05 51°14.536 2°51.608 258.8 12.7 256 10.1
2008-02-27 07:58:10 51°14.532 2°51.58 259.1 12.7 258 9.6
2008-02-27 07:58:15 51°14.528 2°51.553 258.6 12.7 255 10.1
2008-02-27 07:58:20 51°14.524 2°51.525 258.3 12.7 259 10.2
2008-02-27 07:58:25 51°14.52 2°51.498 259.5 12.7 257 9.8
2008-02-27 07:58:30 51°14.516 2°51.471 259.1 12.8 257 10
2008-02-27 07:58:35 51°14.512 2°51.443 258.6 12.8 257 10
2008-02-27 07:58:40 51°14.509 2°51.416 259.3 12.8 259 10.1
2008-02-27 07:58:45 51°14.504 2°51.388 259.3 12.7 256 10.2
2008-02-27 07:58:50 51°14.5 2°51.361 259.1 12.8 257 10.1
2008-02-27 07:58:55 51°14.496 2°51.333 258.1 12.7 257 10.2
2008-02-27 07:59:00 51°14.492 2°51.306 258.7 12.7 258 10
2008-02-27 07:59:05 51°14.488 2°51.278 259.4 12.8 258 10
2008-02-27 07:59:10 51°14.485 2°51.251 259.2 12.7 257 10.1
2008-02-27 07:59:15 51°14.481 2°51.223 259 12.8 258 10
2008-02-27 07:59:20 51°14.477 2°51.195 259.4 12.8 258 10.2
2008-02-27 07:59:25 51°14.473 2°51.167 259.4 12.9 258 10.2
2008-02-27 07:59:30 51°14.47 2°51.14 260.1 12.7 259 10.1
2008-02-27 07:59:35 51°14.466 2°51.112 259.6 12.8 257 10
2008-02-27 07:59:40 51°14.462 2°51.084 259.2 12.9 258 10
2008-02-27 07:59:45 51°14.458 2°51.056 259 12.9 257 10
2008-02-27 07:59:50 51°14.454 2°51.028 259 12.9 258 10.2
2008-02-27 07:59:55 51°14.451 2°51 259 12.9 258 10.3
2008-02-27 08:00:00 51°14.447 2°50.973 259.2 12.9 258 10.1
2008-02-27 08:00:05 51°14.443 2°50.945 259.3 12.9 259 10.1
2008-02-27 08:00:10 51°14.439 2°50.917 259.8 12.8 257 10.2
2008-02-27 08:00:15 51°14.435 2°50.889 259 12.9 257 10.1
2008-02-27 08:00:20 51°14.432 2°50.861 258.8 12.8 258 10
2008-02-27 08:00:25 51°14.428 2°50.834 258.8 12.9 257 10.1
2008-02-27 08:00:30 51°14.424 2°50.806 258.3 13 258 10.3
2008-02-27 08:00:35 51°14.42 2°50.778 259.3 12.9 257 10.1
2008-02-27 08:00:40 51°14.416 2°50.75 259 13 258 10.4
2008-02-27 08:00:45 51°14.412 2°50.722 259 12.8 258 10.3
2008-02-27 08:00:50 51°14.408 2°50.694 259.4 12.9 257 10.3
2008-02-27 08:00:55 51°14.404 2°50.666 259 12.9 258 10.2
2008-02-27 08:01:00 51°14.401 2°50.638 258.9 12.9 258 10.3
2008-02-27 08:01:05 51°14.397 2°50.611 259 12.9 257 10.4
2008-02-27 08:01:10 51°14.393 2°50.583 258.7 12.9 258 10.3
2008-02-27 08:01:15 51°14.388 2°50.555 258.5 13 256 10.5
2008-02-27 08:01:20 51°14.385 2°50.527 258.9 12.9 257 10.3
2008-02-27 08:01:25 51°14.381 2°50.499 258.6 12.9 258 10.4
2008-02-27 08:01:30 51°14.377 2°50.471 259 12.9 258 10.3
2008-02-27 08:01:35 51°14.373 2°50.444 259.1 12.8 258 10.2
2008-02-27 08:01:40 51°14.369 2°50.415 259 12.9 259 10.5
2008-02-27 08:01:45 51°14.365 2°50.387 259.8 12.9 258 10.5
2008-02-27 08:01:50 51°14.362 2°50.36 259.7 12.8 258 10.3
2008-02-27 08:01:55 51°14.358 2°50.331 259.5 13 258 10.5
2008-02-27 08:02:00 51°14.354 2°50.304 259.7 12.8 258 10.5
2008-02-27 08:02:05 51°14.35 2°50.276 259.4 12.9 257 10.4
2008-02-27 08:02:10 51°14.346 2°50.248 259.2 12.9 258 10.5
2008-02-27 08:02:15 51°14.343 2°50.221 259.7 12.9 258 10.5
2008-02-27 08:02:20 51°14.339 2°50.193 259.4 12.9 258 10.6
2008-02-27 08:02:25 51°14.336 2°50.165 259.7 12.9 259 10.5
2008-02-27 08:02:30 51°14.332 2°50.137 260 12.9 258 10.6
2008-02-27 08:02:35 51°14.328 2°50.109 259.3 13 258 10.8
2008-02-27 08:02:40 51°14.324 2°50.081 259.8 12.8 258 10.6
2008-02-27 08:02:45 51°14.32 2°50.053 259.2 12.9 257 10.7
2008-02-27 08:02:50 51°14.316 2°50.025 259.3 12.9 257 10.7
2008-02-27 08:02:55 51°14.313 2°49.997 259 13 258 10.7
2008-02-27 08:03:00 51°14.309 2°49.969 259 13 257 10.7
2008-02-27 08:03:05 51°14.305 2°49.941 259.4 12.9 257 10.9
2008-02-27 08:03:10 51°14.301 2°49.913 259.2 12.9 258 10.7
2008-02-27 08:03:15 51°14.297 2°49.885 259.3 13 258 11
2008-02-27 08:03:20 51°14.293 2°49.857 259.6 13.1 258 11.1
2008-02-27 08:03:25 51°14.289 2°49.829 259.7 13 257 11.1
2008-02-27 08:03:30 51°14.285 2°49.801 259.7 12.9 258 11.1
2008-02-27 08:03:35 51°14.282 2°49.773 259.7 12.9 257 10.9
2008-02-27 08:03:40 51°14.278 2°49.745 259.4 12.9 257 11.2
2008-02-27 08:03:45 51°14.274 2°49.718 258.5 12.9 257 11.2
2008-02-27 08:03:50 51°14.269 2°49.69 258.9 12.9 256 11.2
2008-02-27 08:03:55 51°14.265 2°49.663 258.3 12.7 256 11.5
2008-02-27 08:04:00 51°14.261 2°49.636 258.6 12.7 258 11.2
2008-02-27 08:04:05 51°14.257 2°49.608 259 12.7 257 11.5
2008-02-27 08:04:10 51°14.253 2°49.581 259.1 12.7 257 11.3
2008-02-27 08:04:15 51°14.25 2°49.553 259 12.7 258 11.1
2008-02-27 08:04:20 51°14.245 2°49.526 259 12.8 257 11.3
2008-02-27 08:04:25 51°14.241 2°49.498 258.5 12.9 257 11.4
2008-02-27 08:04:30 51°14.238 2°49.47 259 12.9 258 11.6
2008-02-27 08:04:35 51°14.234 2°49.442 259.3 12.8 257 11.5
2008-02-27 08:04:40 51°14.23 2°49.414 259.3 12.9 257 11.7
2008-02-27 08:04:45 51°14.226 2°49.387 260 12.7 256 11.3
2008-02-27 08:04:50 51°14.222 2°49.359 258.5 12.9 257 11.5
2008-02-27 08:04:55 51°14.218 2°49.332 259.3 12.7 258 11.5
2008-02-27 08:05:00 51°14.214 2°49.304 259.5 12.8 257 11.5
2008-02-27 08:05:05 51°14.21 2°49.276 259.1 12.8 257 11.6
2008-02-27 08:05:10 51°14.206 2°49.248 259.2 12.9 257 11.7
2008-02-27 08:05:15 51°14.203 2°49.22 259.2 12.9 258 11.7
2008-02-27 08:05:20 51°14.199 2°49.193 259.7 13 257 11.6
2008-02-27 08:05:25 51°14.195 2°49.165 258.7 12.9 257 11.8
2008-02-27 08:05:30 51°14.191 2°49.137 259 13 257 11.7
2008-02-27 08:05:35 51°14.187 2°49.109 259 12.9 258 11.7
2008-02-27 08:05:40 51°14.183 2°49.081 259.1 13 257 11.5
2008-02-27 08:05:45 51°14.179 2°49.053 258.9 13 257 11.7
2008-02-27 08:05:50 51°14.175 2°49.025 259 13 258 11.8
2008-02-27 08:05:55 51°14.171 2°48.996 259.2 13 258 11.9
2008-02-27 08:06:00 51°14.167 2°48.969 259.2 12.9 257 11.8
2008-02-27 08:06:05 51°14.163 2°48.941 258.9 12.9 256 11.9
2008-02-27 08:06:10 51°14.157 2°48.914 256 12.9 251 11.8
2008-02-27 08:06:15 51°14.151 2°48.887 252.1 12.9 251 11.6
2008-02-27 08:06:20 51°14.145 2°48.861 252.7 12.8 251 11.7
2008-02-27 08:06:25 51°14.138 2°48.835 251.1 12.8 246 12
2008-02-27 08:06:30 51°14.129 2°48.811 245.4 12.6 239 11.5
2008-02-27 08:06:35 51°14.12 2°48.787 240.6 12.7 239 11.4
2008-02-27 08:06:40 51°14.112 2°48.762 242 12.6 243 11.7
2008-02-27 08:06:45 51°14.102 2°48.739 241.5 12.7 236 11.6
2008-02-27 08:06:50 51°14.092 2°48.715 238.9 12.8 236 11.8
2008-02-27 08:06:55 51°14.082 2°48.692 236.5 12.9 235 11.7
2008-02-27 08:07:00 51°14.073 2°48.667 236.5 12.9 238 11.7
2008-02-27 08:07:05 51°14.061 2°48.645 235.7 12.9 233 11.8
2008-02-27 08:07:10 51°14.051 2°48.621 234.7 13 235 11.6
2008-02-27 08:07:15 51°14.041 2°48.597 234.4 13 234 11.7
2008-02-27 08:07:20 51°14.03 2°48.574 234.3 12.9 234 11.4
2008-02-27 08:07:25 51°14.019 2°48.552 233.5 13.1 233 11.8
2008-02-27 08:07:30 51°14.008 2°48.529 233.1 13 233 11.4
2008-02-27 08:07:35 51°13.997 2°48.506 233 12.9 232 11.5
2008-02-27 08:07:40 51°13.986 2°48.483 232.7 13 232 11.6
2008-02-27 08:07:45 51°13.975 2°48.46 232.8 13.2 233 11.3
2008-02-27 08:07:50 51°13.965 2°48.437 233.3 13 235 11.7
2008-02-27 08:07:55 51°13.953 2°48.414 233.2 13 232 11.6
2008-02-27 08:08:00 51°13.943 2°48.391 232.6 13 235 11.8
2008-02-27 08:08:05 51°13.932 2°48.369 232.9 12.9 231 11.4
2008-02-27 08:08:10 51°13.921 2°48.345 231.6 13.1 234 11.6
2008-02-27 08:08:15 51°13.91 2°48.322 233 13 234 11.7
2008-02-27 08:08:20 51°13.9 2°48.3 234.3 12.8 234 11.5
2008-02-27 08:08:25 51°13.889 2°48.277 232.8 13.1 233 11.6
2008-02-27 08:08:30 51°13.878 2°48.253 234 13.1 234 11.5
2008-02-27 08:08:35 51°13.867 2°48.23 233.5 13.1 232 11.8
2008-02-27 08:08:40 51°13.857 2°48.207 233 12.9 235 11.6
2008-02-27 08:08:45 51°13.846 2°48.184 233.9 13 233 11.5
2008-02-27 08:08:50 51°13.835 2°48.162 232.9 13 232 11.5
2008-02-27 08:08:55 51°13.825 2°48.138 233.3 12.9 234 11.4
2008-02-27 08:09:00 51°13.813 2°48.117 233.1 12.9 231 11.5
2008-02-27 08:09:05 51°13.803 2°48.093 232.9 13.1 234 11.4
2008-02-27 08:09:10 51°13.793 2°48.069 234.2 12.9 234 11.5
2008-02-27 08:09:15 51°13.782 2°48.047 233.3 12.9 232 11.3
2008-02-27 08:09:20 51°13.771 2°48.023 232.2 13.2 235 11.6
2008-02-27 08:09:25 51°13.761 2°48 235.6 12.8 235 11.5
2008-02-27 08:09:30 51°13.75 2°47.978 233.1 13 233 11.5
2008-02-27 08:09:35 51°13.739 2°47.954 232.9 13 235 11.4
2008-02-27 08:09:40 51°13.729 2°47.931 235 13 234 11.6
2008-02-27 08:09:45 51°13.718 2°47.908 233.6 13 233 11.4
2008-02-27 08:09:50 51°13.708 2°47.885 234.4 12.9 235 11.5
2008-02-27 08:09:55 51°13.697 2°47.862 233.6 13.1 233 11.6
2008-02-27 08:10:00 51°13.686 2°47.838 233 13.1 234 11.3
2008-02-27 08:10:05 51°13.675 2°47.815 233.6 12.9 234 11.7
2008-02-27 08:10:10 51°13.665 2°47.792 234 12.9 234 11.3
2008-02-27 08:10:15 51°13.654 2°47.769 233.5 13 233 11.5
2008-02-27 08:10:20 51°13.643 2°47.746 233.8 13 232 11.4
2008-02-27 08:10:25 51°13.632 2°47.723 232.4 13.1 233 11.4
2008-02-27 08:10:30 51°13.623 2°47.699 234.9 12.9 236 11.2
2008-02-27 08:10:35 51°13.611 2°47.677 232.9 12.9 233 11
2008-02-27 08:10:40 51°13.602 2°47.653 234 12.9 236 11.2
2008-02-27 08:10:45 51°13.59 2°47.631 234 13 232 10.9
2008-02-27 08:10:50 51°13.58 2°47.607 233 13.1 234 11.4
2008-02-27 08:10:55 51°13.57 2°47.584 234.3 12.9 236 11.3
2008-02-27 08:11:00 51°13.559 2°47.561 234.5 12.9 233 11.3
2008-02-27 08:11:05 51°13.549 2°47.537 233.2 13.1 236 11.3
2008-02-27 08:11:10 51°13.539 2°47.514 235.4 13 236 11.4
2008-02-27 08:11:15 51°13.527 2°47.491 234.3 13 232 11.4
2008-02-27 08:11:20 51°13.517 2°47.467 234.2 13 236 11.4
2008-02-27 08:11:25 51°13.506 2°47.445 234.2 13 232 11.4
2008-02-27 08:11:30 51°13.496 2°47.421 233.2 13.1 235 11.1
2008-02-27 08:11:35 51°13.485 2°47.398 233.7 13 233 11.4
2008-02-27 08:11:40 51°13.475 2°47.375 234.2 12.9 235 11.2
2008-02-27 08:11:45 51°13.463 2°47.352 233.3 13.1 232 11.3
2008-02-27 08:11:50 51°13.453 2°47.328 233.7 13.1 237 11.2
2008-02-27 08:11:55 51°13.442 2°47.305 234 13.1 232 11.2
2008-02-27 08:12:00 51°13.432 2°47.281 233.6 13.1 236 11.2
2008-02-27 08:12:05 51°13.421 2°47.258 234.1 13 234 11.4
2008-02-27 08:12:10 51°13.41 2°47.235 232.9 13.1 234 11.3
2008-02-27 08:12:15 51°13.4 2°47.211 234.9 13.1 236 11
2008-02-27 08:12:20 51°13.389 2°47.188 234.8 13.2 233 11.1
2008-02-27 08:12:25 51°13.378 2°47.165 232.2 13 234 11.3
2008-02-27 08:12:30 51°13.368 2°47.141 233.7 12.9 236 11.2
2008-02-27 08:12:35 51°13.357 2°47.119 233.5 13.1 232 11.1
2008-02-27 08:12:40 51°13.347 2°47.094 233.6 13.1 236 11.2
2008-02-27 08:12:45 51°13.336 2°47.072 233.5 13 232 11.1
2008-02-27 08:12:50 51°13.325 2°47.048 233.2 13 235 11.1
2008-02-27 08:12:55 51°13.314 2°47.025 233.9 13.1 233 11.3
2008-02-27 08:13:00 51°13.304 2°47.001 233.9 13 234 10.9
2008-02-27 08:13:05 51°13.293 2°46.978 233.2 13.1 233 11.1
2008-02-27 08:13:10 51°13.283 2°46.954 233.9 13.1 236 10.9
2008-02-27 08:13:15 51°13.272 2°46.931 234.7 13.1 234 11
2008-02-27 08:13:20 51°13.262 2°46.907 234.3 13.1 234 11
2008-02-27 08:13:25 51°13.251 2°46.884 234.4 13 234 11.2
2008-02-27 08:13:30 51°13.241 2°46.86 234.7 13 235 10.9
2008-02-27 08:13:35 51°13.23 2°46.837 234.7 13 235 11
2008-02-27 08:13:40 51°13.22 2°46.814 234.3 13 234 11
2008-02-27 08:13:45 51°13.209 2°46.79 234.3 13.2 235 11
2008-02-27 08:13:50 51°13.198 2°46.767 234 13.2 233 10.9
2008-02-27 08:13:55 51°13.189 2°46.743 234.5 12.9 237 10.9
2008-02-27 08:14:00 51°13.178 2°46.72 233.6 13 233 10.9
2008-02-27 08:14:05 51°13.167 2°46.696 233.8 13.1 235 10.8
2008-02-27 08:14:10 51°13.156 2°46.673 233.9 13.1 233 10.8
2008-02-27 08:14:15 51°13.145 2°46.65 233.6 13 234 10.9
2008-02-27 08:14:20 51°13.135 2°46.626 233.8 13 235 10.8
2008-02-27 08:14:25 51°13.125 2°46.603 234.3 13 235 10.9
2008-02-27 08:14:30 51°13.114 2°46.579 234.8 13.1 234 10.9
2008-02-27 08:14:35 51°13.104 2°46.556 234 13.1 235 10.9
2008-02-27 08:14:40 51°13.093 2°46.532 234.1 13.2 235 10.8
2008-02-27 08:14:45 51°13.082 2°46.508 234.6 13.1 234 11
2008-02-27 08:14:50 51°13.072 2°46.485 234.3 13 235 11
2008-02-27 08:14:55 51°13.061 2°46.462 233.7 13 233 10.8
2008-02-27 08:15:00 51°13.051 2°46.438 234.3 13.1 236 11.1
2008-02-27 08:15:05 51°13.04 2°46.415 234.8 13 232 10.7
2008-02-27 08:15:10 51°13.03 2°46.391 233.6 13.1 237 10.9
2008-02-27 08:15:15 51°13.019 2°46.368 235.5 13.1 234 11
2008-02-27 08:15:20 51°13.008 2°46.345 233.8 13.1 233 10.8
2008-02-27 08:15:25 51°12.998 2°46.322 233.5 12.9 236 10.7
2008-02-27 08:15:30 51°12.987 2°46.299 234 13 233 10.8
2008-02-27 08:15:35 51°12.977 2°46.275 233.6 13.1 237 10.6
2008-02-27 08:15:40 51°12.967 2°46.251 235.7 12.9 235 10.6
2008-02-27 08:15:45 51°12.956 2°46.227 233.8 13.1 235 10.5
2008-02-27 08:15:50 51°12.946 2°46.203 235.1 13 236 10.6
2008-02-27 08:15:55 51°12.935 2°46.18 234.5 13.1 234 10.4
2008-02-27 08:16:00 51°12.925 2°46.156 234.3 13 236 10.6
2008-02-27 08:16:05 51°12.914 2°46.134 234.3 13 233 10.4
2008-02-27 08:16:10 51°12.904 2°46.11 234.6 13.1 236 10.3
2008-02-27 08:16:15 51°12.893 2°46.087 234.6 13 233 10.3
2008-02-27 08:16:20 51°12.883 2°46.063 233.7 13.1 235 10.1
2008-02-27 08:16:25 51°12.873 2°46.039 234.1 13.2 236 10.2
2008-02-27 08:16:30 51°12.862 2°46.016 234.7 13 234 10.1
2008-02-27 08:16:34 51°12.854 2°45.997 234.1 12.9 234 10.3
2008-02-27 08:16:40 51°12.841 2°45.969 233.9 13.1 235 10.4
2008-02-27 08:16:45 51°12.831 2°45.945 234.4 13.1 236 10.1
2008-02-27 08:16:50 51°12.821 2°45.921 235.1 13.1 236 10.1
2008-02-27 08:16:55 51°12.81 2°45.898 234.8 12.9 234 9.7
2008-02-27 08:17:00 51°12.801 2°45.873 234.6 13 239 9.4
2008-02-27 08:17:05 51°12.792 2°45.848 238.1 13 242 9.4
2008-02-27 08:17:10 51°12.783 2°45.824 239.9 13 240 9.4
2008-02-27 08:17:15 51°12.775 2°45.798 240.1 12.9 242 9.4
2008-02-27 08:17:20 51°12.766 2°45.773 241.2 13 241 9.6
2008-02-27 08:17:25 51°12.758 2°45.748 241.5 13.1 242 9.5
2008-02-27 08:17:30 51°12.749 2°45.722 241.8 13 243 9.4
2008-02-27 08:17:35 51°12.741 2°45.697 242.5 12.9 241 9.5
2008-02-27 08:17:40 51°12.732 2°45.672 240.7 13.1 241 9.3
2008-02-27 08:17:45 51°12.723 2°45.647 241.3 13 242 9.3
2008-02-27 08:17:50 51°12.715 2°45.621 241.8 12.9 243 9.2
2008-02-27 08:17:55 51°12.707 2°45.596 242.2 13 242 8.9
2008-02-27 08:18:00 51°12.698 2°45.571 242.1 13 242 9.1
2008-02-27 08:18:05 51°12.69 2°45.545 241.9 13 243 9.1
2008-02-27 08:18:10 51°12.681 2°45.521 242.3 12.9 240 8.8
2008-02-27 08:18:15 51°12.673 2°45.495 241.1 12.9 243 8.7
2008-02-27 08:18:20 51°12.664 2°45.47 241 13 241 8.2
2008-02-27 08:18:25 51°12.657 2°45.444 241.8 12.9 246 8.1
2008-02-27 08:18:30 51°12.65 2°45.418 245.3 12.8 246 8.3
2008-02-27 08:18:35 51°12.642 2°45.393 245.5 12.7 245 8.5
2008-02-27 08:18:40 51°12.636 2°45.367 245.9 12.8 246 8.6
2008-02-27 08:18:45 51°12.629 2°45.341 245.8 13 248 8.4
2008-02-27 08:18:50 51°12.622 2°45.314 246.8 12.9 247 8.5
2008-02-27 08:18:55 51°12.614 2°45.288 246.3 13 246 8.4
2008-02-27 08:19:00 51°12.608 2°45.262 247.3 12.8 248 8.2
2008-02-27 08:19:05 51°12.601 2°45.236 247.2 12.9 247 8.6
2008-02-27 08:19:10 51°12.594 2°45.209 248 13 248 8.5
2008-02-27 08:19:15 51°12.587 2°45.183 247.3 13 248 8.2
2008-02-27 08:19:20 51°12.58 2°45.156 248.1 12.8 248 8.5
2008-02-27 08:19:25 51°12.573 2°45.13 247 12.9 248 8.3
2008-02-27 08:19:30 51°12.567 2°45.104 247.2 12.9 248 8.5
2008-02-27 08:19:35 51°12.56 2°45.077 247.9 13 249 8.2
2008-02-27 08:19:40 51°12.554 2°45.05 248.1 13 248 8.2
2008-02-27 08:19:45 51°12.546 2°45.024 248 12.9 248 8.5
2008-02-27 08:19:50 51°12.54 2°44.998 247.8 12.9 247 8.4
2008-02-27 08:19:55 51°12.532 2°44.972 247.2 12.8 246 8.3
2008-02-27 08:20:00 51°12.525 2°44.945 246.3 12.9 248 8.5
2008-02-27 08:20:05 51°12.518 2°44.919 246.3 13 247 8.6
2008-02-27 08:20:10 51°12.511 2°44.893 246.3 12.9 247 8.2
2008-02-27 08:20:15 51°12.504 2°44.867 245.8 13 245 8.3
2008-02-27 08:20:20 51°12.497 2°44.84 246 12.9 249 8.5
2008-02-27 08:20:25 51°12.489 2°44.814 246.7 12.9 245 8.4
2008-02-27 08:20:30 51°12.483 2°44.788 246 12.9 248 8.5
2008-02-27 08:20:35 51°12.475 2°44.762 246 12.9 245 8.3
2008-02-27 08:20:40 51°12.468 2°44.736 245.9 12.8 246 8.7
2008-02-27 08:20:45 51°12.46 2°44.71 244.8 12.9 244 8.6
2008-02-27 08:20:50 51°12.454 2°44.684 245.2 13 248 8.5
2008-02-27 08:20:55 51°12.447 2°44.657 247.3 13 247 8.7
2008-02-27 08:21:00 51°12.439 2°44.631 246.5 13 246 8.7
2008-02-27 08:21:05 51°12.433 2°44.605 246.2 12.9 249 8.8
2008-02-27 08:21:10 51°12.426 2°44.579 247.1 12.9 246 8.6
2008-02-27 08:21:15 51°12.419 2°44.552 247.1 13 248 9
2008-02-27 08:21:20 51°12.412 2°44.525 246.5 13 247 9
2008-02-27 08:21:25 51°12.405 2°44.499 247.6 13 247 9
2008-02-27 08:21:30 51°12.398 2°44.472 247.2 13 247 9
2008-02-27 08:21:35 51°12.391 2°44.445 247.5 13 248 9.1
2008-02-27 08:21:40 51°12.384 2°44.419 247.9 13 248 9.1
2008-02-27 08:21:45 51°12.377 2°44.392 247 13.1 247 9.2
2008-02-27 08:21:50 51°12.371 2°44.366 247.7 13.1 248 9.2
2008-02-27 08:21:55 51°12.363 2°44.34 246.7 13 245 7.9
2008-02-27 08:22:00 51°12.357 2°44.313 247.5 12.7 248 8.9
2008-02-27 08:22:05 51°12.349 2°44.288 246.4 12.9 243 9.1
2008-02-27 08:22:10 51°12.342 2°44.262 244.8 12.8 248 9.3
2008-02-27 08:22:15 51°12.335 2°44.236 247.8 12.9 248 9.5
2008-02-27 08:22:20 51°12.328 2°44.21 247.1 12.9 246 9.5
2008-02-27 08:22:25 51°12.321 2°44.183 245.5 13 247 9.5
2008-02-27 08:22:30 51°12.313 2°44.157 246.7 13 246 9.7
2008-02-27 08:22:35 51°12.306 2°44.131 246 12.9 246 9.8
2008-02-27 08:22:40 51°12.299 2°44.105 246.4 12.9 248 9.7
2008-02-27 08:22:45 51°12.292 2°44.079 246 13 246 9.6
2008-02-27 08:22:50 51°12.285 2°44.052 246.5 13 248 10
2008-02-27 08:22:55 51°12.277 2°44.027 246.6 12.8 245 9.8
2008-02-27 08:23:00 51°12.271 2°44 246 12.9 248 10
2008-02-27 08:23:05 51°12.263 2°43.974 246.9 12.8 244 9.9
2008-02-27 08:23:10 51°12.255 2°43.949 244.8 12.9 245 10.2
2008-02-27 08:23:15 51°12.248 2°43.923 244.7 12.9 246 10.2
2008-02-27 08:23:20 51°12.24 2°43.898 244 12.9 244 9.3
2008-02-27 08:23:25 51°12.232 2°43.872 244.1 12.8 244 9.7
2008-02-27 08:23:30 51°12.225 2°43.846 243.8 12.8 244 9.1
2008-02-27 08:23:35 51°12.217 2°43.821 244 12.7 245 9.5
2008-02-27 08:23:40 51°12.209 2°43.796 243.7 12.9 244 9.8
2008-02-27 08:23:45 51°12.202 2°43.77 243.7 12.8 245 10.1
2008-02-27 08:23:50 51°12.193 2°43.744 243.8 13 243 9.5
2008-02-27 08:23:55 51°12.186 2°43.719 243.5 12.9 245 9.2
2008-02-27 08:24:00 51°12.178 2°43.693 244 12.9 243 9.7
2008-02-27 08:24:05 51°12.171 2°43.667 243.8 13 245 9.7
2008-02-27 08:24:10 51°12.163 2°43.641 244.2 12.9 244 9.9
2008-02-27 08:24:15 51°12.155 2°43.616 244 12.9 245 8.7
2008-02-27 08:24:20 51°12.147 2°43.59 244.5 12.9 245 9
2008-02-27 08:24:25 51°12.14 2°43.564 244.3 13 245 9.7
2008-02-27 08:24:30 51°12.132 2°43.539 244.9 12.9 244 10.3
2008-02-27 08:24:35 51°12.124 2°43.513 243.8 13.1 245 10.5
2008-02-27 08:24:40 51°12.116 2°43.487 244.2 13 243 9.5
2008-02-27 08:24:45 51°12.108 2°43.461 243 13 244 9.5
2008-02-27 08:24:50 51°12.101 2°43.436 244 12.9 243 10.1
2008-02-27 08:24:55 51°12.092 2°43.41 243.3 13.1 245 10.6
2008-02-27 08:25:00 51°12.085 2°43.384 244.9 13 245 10.9
2008-02-27 08:25:05 51°12.077 2°43.358 244.6 13.1 243 10.9
2008-02-27 08:25:10 51°12.069 2°43.332 244.3 13 246 9.5
2008-02-27 08:25:15 51°12.061 2°43.306 245 12.9 243 10.2
2008-02-27 08:25:20 51°12.054 2°43.281 243.6 12.8 245 9.5
2008-02-27 08:25:25 51°12.047 2°43.255 244.5 12.9 246 9.2
2008-02-27 08:25:30 51°12.039 2°43.229 245.2 12.9 244 9.6
2008-02-27 08:25:35 51°12.031 2°43.204 244.5 12.7 245 9.5
2008-02-27 08:25:40 51°12.023 2°43.179 244.4 12.8 244 9.3
2008-02-27 08:25:45 51°12.016 2°43.153 244.4 12.8 244 9.5
2008-02-27 08:25:50 51°12.008 2°43.127 244.5 12.9 245 9.7
2008-02-27 08:25:55 51°11.999 2°43.102 243.1 13 240 10.1
2008-02-27 08:26:00 51°11.99 2°43.078 240.6 12.8 240 9.7
2008-02-27 08:26:05 51°11.981 2°43.053 239.4 12.9 240 9.9
2008-02-27 08:26:10 51°11.972 2°43.029 240.1 12.9 239 10.2
2008-02-27 08:26:15 51°11.963 2°43.005 238.3 12.8 237 10.2
2008-02-27 08:26:20 51°11.953 2°42.981 236.7 12.9 240 9.9
2008-02-27 08:26:25 51°11.944 2°42.957 238.6 12.8 238 9.8
2008-02-27 08:26:30 51°11.934 2°42.933 236.7 12.8 237 9.4
2008-02-27 08:26:35 51°11.925 2°42.909 237.6 12.9 238 9.6
2008-02-27 08:26:40 51°11.916 2°42.885 237.8 12.8 237 9.8
2008-02-27 08:26:45 51°11.907 2°42.861 237.1 12.8 239 9.3
2008-02-27 08:26:50 51°11.897 2°42.837 237.7 12.9 238 9.5
2008-02-27 08:26:55 51°11.888 2°42.812 237.2 12.9 238 9.7
2008-02-27 08:27:00 51°11.878 2°42.788 237.2 13 237 9.7
2008-02-27 08:27:05 51°11.869 2°42.764 236.5 12.9 238 9.9
2008-02-27 08:27:10 51°11.859 2°42.74 236.2 12.8 237 9.9
2008-02-27 08:27:15 51°11.849 2°42.716 235.7 12.9 238 9.9
2008-02-27 08:27:20 51°11.839 2°42.692 235.9 12.9 237 9.9
2008-02-27 08:27:25 51°11.83 2°42.669 236.3 12.9 238 9.4
2008-02-27 08:27:30 51°11.82 2°42.645 236.7 12.8 237 9.9
2008-02-27 08:27:34 51°11.812 2°42.626 236.5 12.6 237 9.6
2008-02-27 08:27:40 51°11.801 2°42.597 236 12.8 237 9.7
2008-02-27 08:27:45 51°11.792 2°42.573 236.7 12.9 240 9.8
2008-02-27 08:27:50 51°11.782 2°42.549 237.2 12.9 237 10
2008-02-27 08:27:55 51°11.773 2°42.525 237.4 12.8 239 10.1
2008-02-27 08:28:00 51°11.763 2°42.501 236.5 13 237 9.7
2008-02-27 08:28:05 51°11.754 2°42.476 238 12.9 241 10.1
2008-02-27 08:28:10 51°11.744 2°42.453 237.7 12.9 236 9.9
2008-02-27 08:28:15 51°11.735 2°42.428 236.5 12.8 241 10.1
2008-02-27 08:28:20 51°11.726 2°42.404 238.2 12.9 238 9.9
2008-02-27 08:28:25 51°11.717 2°42.379 237.7 13 240 10
2008-02-27 08:28:30 51°11.708 2°42.355 237.8 12.9 239 10.1
2008-02-27 08:28:35 51°11.699 2°42.33 237.8 12.9 239 10.1
2008-02-27 08:28:40 51°11.689 2°42.306 236.8 13 238 10.2
2008-02-27 08:28:45 51°11.679 2°42.281 237.5 13 239 10
2008-02-27 08:28:50 51°11.669 2°42.258 235.6 12.9 235 10.2
2008-02-27 08:28:55 51°11.658 2°42.235 233.5 12.8 235 10.2
2008-02-27 08:29:00 51°11.648 2°42.212 232.3 12.9 234 9.9
2008-02-27 08:29:05 51°11.637 2°42.189 231.9 13 233 10
2008-02-27 08:29:10 51°11.627 2°42.166 231.8 12.8 234 10.1
2008-02-27 08:29:15 51°11.616 2°42.144 231.7 12.8 232 9.9
2008-02-27 08:29:20 51°11.605 2°42.121 230.9 13 234 10.1
2008-02-27 08:29:25 51°11.595 2°42.098 232.6 12.9 234 10.1
2008-02-27 08:29:30 51°11.583 2°42.075 231.4 13.1 232 10.2
2008-02-27 08:29:35 51°11.573 2°42.051 231.9 13 236 10.3
2008-02-27 08:29:40 51°11.562 2°42.029 232.2 13 232 10.2
2008-02-27 08:29:45 51°11.552 2°42.005 231.8 13 235 10.3
2008-02-27 08:29:50 51°11.541 2°41.982 232.7 12.9 234 10.2
2008-02-27 08:29:55 51°11.53 2°41.959 232.1 13 233 10.3
2008-02-27 08:30:00 51°11.52 2°41.935 232.1 13 235 10.5
2008-02-27 08:30:05 51°11.509 2°41.913 232.8 13 232 10.6
2008-02-27 08:30:10 51°11.498 2°41.89 230.5 12.9 233 10.5
2008-02-27 08:30:15 51°11.488 2°41.867 231.7 12.9 234 10.9
2008-02-27 08:30:20 51°11.476 2°41.844 231.4 13 231 11
2008-02-27 08:30:25 51°11.466 2°41.821 231.2 13 236 11
2008-02-27 08:30:30 51°11.455 2°41.798 232 13 231 11.2
2008-02-27 08:30:35 51°11.445 2°41.775 231.4 13 236 11.1
2008-02-27 08:30:40 51°11.434 2°41.752 232.9 13 233 11.2
2008-02-27 08:30:45 51°11.423 2°41.729 232.2 13.1 235 11.4
2008-02-27 08:30:50 51°11.412 2°41.705 231.8 13.1 234 11.3
2008-02-27 08:30:55 51°11.402 2°41.682 232.9 13 235 11.6
2008-02-27 08:31:00 51°11.391 2°41.659 232.1 13.1 232 11.6
2008-02-27 08:31:05 51°11.381 2°41.634 232 13.2 236 11.6
2008-02-27 08:31:10 51°11.37 2°41.612 232.5 13.1 232 11.6
2008-02-27 08:31:15 51°11.359 2°41.589 231.3 13.1 234 11.9
2008-02-27 08:31:20 51°11.349 2°41.565 232.9 13 235 11.5
2008-02-27 08:31:25 51°11.338 2°41.541 232.1 13.1 235 11.6
2008-02-27 08:31:30 51°11.328 2°41.518 232.7 13.1 234 11.5
2008-02-27 08:31:35 51°11.317 2°41.495 232.2 13.1 234 11.7
2008-02-27 08:31:40 51°11.306 2°41.471 232.4 13.1 232 11.8
2008-02-27 08:31:45 51°11.296 2°41.448 231.8 13.1 235 11.6
2008-02-27 08:31:50 51°11.285 2°41.424 232.7 13 234 11.8
2008-02-27 08:31:55 51°11.274 2°41.401 232.4 13.2 232 11.9
2008-02-27 08:32:00 51°11.264 2°41.377 232.2 13.2 237 11.8
2008-02-27 08:32:05 51°11.253 2°41.354 233.4 13.1 232 11.9
2008-02-27 08:32:10 51°11.243 2°41.33 232.2 13 234 11.9
2008-02-27 08:32:15 51°11.231 2°41.307 232.3 13.2 233 11.8
2008-02-27 08:32:20 51°11.221 2°41.284 232.2 13 234 11.9
2008-02-27 08:32:25 51°11.21 2°41.261 232 13.1 232 12
2008-02-27 08:32:30 51°11.199 2°41.237 231.8 13.2 236 12
2008-02-27 08:32:35 51°11.188 2°41.215 232.5 13.1 232 12.1
2008-02-27 08:32:40 51°11.178 2°41.191 231.3 13.1 234 11.9
2008-02-27 08:32:45 51°11.167 2°41.168 232.2 13.1 234 12.1
2008-02-27 08:32:50 51°11.156 2°41.145 232.4 13.1 233 12.2
2008-02-27 08:32:55 51°11.146 2°41.121 232.3 13.1 234 12.2
2008-02-27 08:33:00 51°11.136 2°41.097 232.1 13.2 236 12.3
2008-02-27 08:33:05 51°11.124 2°41.074 232.7 13.2 234 12.4
2008-02-27 08:33:10 51°11.114 2°41.05 232.9 13.2 234 12.5
2008-02-27 08:33:15 51°11.104 2°41.026 232.9 13.2 235 12.4
2008-02-27 08:33:20 51°11.093 2°41.002 232.7 13.2 235 12.4
2008-02-27 08:33:25 51°11.082 2°40.979 232.4 13.2 235 12.5
2008-02-27 08:33:30 51°11.072 2°40.955 232.2 13.2 234 12.3
2008-02-27 08:33:35 51°11.061 2°40.931 232.2 13.3 233 12.6
2008-02-27 08:33:40 51°11.05 2°40.908 231.9 13.2 235 12.6
2008-02-27 08:33:45 51°11.04 2°40.884 233 13.1 234 12.6
2008-02-27 08:33:50 51°11.028 2°40.86 231.4 13.3 234 12.5
2008-02-27 08:33:55 51°11.018 2°40.836 232.8 13.2 236 12.7
2008-02-27 08:34:00 51°11.007 2°40.813 231.9 13.2 232 12.7
2008-02-27 08:34:05 51°10.997 2°40.789 232 13.2 236 12.6
2008-02-27 08:34:10 51°10.986 2°40.766 232.4 13.2 234 12.8
2008-02-27 08:34:15 51°10.975 2°40.742 231.9 13.4 234 12.9
2008-02-27 08:34:20 51°10.965 2°40.718 232.4 13.3 236 12.8
2008-02-27 08:34:25 51°10.954 2°40.695 232.7 13.1 232 12.9
2008-02-27 08:34:30 51°10.943 2°40.672 231.1 13.2 234 12.6
2008-02-27 08:34:35 51°10.932 2°40.648 232.5 13 233 12.7
2008-02-27 08:34:40 51°10.921 2°40.625 230.7 13.1 233 12.9
2008-02-27 08:34:45 51°10.91 2°40.602 231.5 13.2 234 12.9
2008-02-27 08:34:50 51°10.899 2°40.578 231.8 13.3 235 13.1
2008-02-27 08:34:55 51°10.889 2°40.555 232.3 13.1 234 12.9
2008-02-27 08:35:00 51°10.878 2°40.531 231.4 13.3 234 13.2
2008-02-27 08:35:05 51°10.867 2°40.507 232.7 13.3 236 13.1
2008-02-27 08:35:10 51°10.857 2°40.483 233.4 13.1 235 13.2
2008-02-27 08:35:15 51°10.846 2°40.46 232.2 13.4 233 13.3
2008-02-27 08:35:20 51°10.836 2°40.434 232.9 13.4 238 13.3
2008-02-27 08:35:25 51°10.824 2°40.412 232.5 13.3 233 13.2
2008-02-27 08:35:30 51°10.814 2°40.387 231.9 13.2 236 13.4
2008-02-27 08:35:35 51°10.803 2°40.364 232.1 13.4 234 13.2
2008-02-27 08:35:40 51°10.793 2°40.339 232.2 13.4 236 13.3
2008-02-27 08:35:45 51°10.781 2°40.316 232.3 13.3 231 13.3
2008-02-27 08:35:50 51°10.771 2°40.291 231.9 13.4 237 13.5
2008-02-27 08:35:55 51°10.76 2°40.268 233.2 13.2 232 13.3
2008-02-27 08:36:00 51°10.749 2°40.244 231.5 13.3 234 13.4
2008-02-27 08:36:05 51°10.739 2°40.22 232.8 13.3 235 13.4
2008-02-27 08:36:10 51°10.728 2°40.197 232.6 13.3 233 13.6
2008-02-27 08:36:15 51°10.717 2°40.173 231.8 13.2 234 13.3
2008-02-27 08:36:20 51°10.706 2°40.149 232.2 13.2 234 13.4
2008-02-27 08:36:25 51°10.696 2°40.125 232.2 13.3 236 13.6
2008-02-27 08:36:30 51°10.685 2°40.102 232.9 13.3 233 13.6
2008-02-27 08:36:35 51°10.674 2°40.078 231.9 13.3 236 13.6
2008-02-27 08:36:40 51°10.663 2°40.054 232.6 13.3 233 14
2008-02-27 08:36:45 51°10.653 2°40.03 232 13.4 235 13.9
2008-02-27 08:36:50 51°10.642 2°40.006 233 13.3 235 13.9
2008-02-27 08:36:55 51°10.632 2°39.982 232.8 13.3 235 13.9
2008-02-27 08:37:00 51°10.621 2°39.959 232.2 13.1 233 13.9
2008-02-27 08:37:05 51°10.61 2°39.936 232.2 13.2 234 13.8
2008-02-27 08:37:10 51°10.598 2°39.913 231.1 13.1 233 14
2008-02-27 08:37:15 51°10.588 2°39.889 232.1 13.1 234 13.8
2008-02-27 08:37:20 51°10.577 2°39.866 231.5 13.2 233 14.2
2008-02-27 08:37:25 51°10.567 2°39.842 232.3 13.2 235 14.4
2008-02-27 08:37:30 51°10.556 2°39.818 232.7 13.2 234 14.1
2008-02-27 08:37:35 51°10.545 2°39.794 232.3 13.4 234 14.3
2008-02-27 08:37:40 51°10.534 2°39.771 232.3 13.2 234 14.2
2008-02-27 08:37:45 51°10.524 2°39.747 232.5 13.3 233 14.2
2008-02-27 08:37:50 51°10.512 2°39.723 231.8 13.4 234 14.3
2008-02-27 08:37:55 51°10.502 2°39.699 233.4 13.3 236 14.5
2008-02-27 08:38:00 51°10.491 2°39.676 232.2 13.2 232 14.4
2008-02-27 08:38:05 51°10.481 2°39.652 231.8 13.3 236 14.4
2008-02-27 08:38:10 51°10.47 2°39.628 232.1 13.3 235 14.4
2008-02-27 08:38:15 51°10.46 2°39.603 234.8 13.4 238 14.5
2008-02-27 08:38:20 51°10.45 2°39.578 235.6 13.3 238 14.4
2008-02-27 08:38:25 51°10.441 2°39.553 236.8 13.3 239 14.4
2008-02-27 08:38:30 51°10.431 2°39.528 236.8 13.4 239 14.4
2008-02-27 08:38:35 51°10.422 2°39.502 238 13.3 240 14.4
2008-02-27 08:38:40 51°10.412 2°39.477 237.6 13.4 238 14.3
2008-02-27 08:38:45 51°10.403 2°39.451 237.3 13.4 240 14.6
2008-02-27 08:38:50 51°10.393 2°39.426 238.1 13.3 238 14.3
2008-02-27 08:38:55 51°10.383 2°39.401 237 13.3 239 14.5
2008-02-27 08:39:00 51°10.374 2°39.376 237 13.4 238 14.2
2008-02-27 08:39:05 51°10.364 2°39.351 237.2 13.3 239 14.4
2008-02-27 08:39:10 51°10.354 2°39.326 237.5 13.3 238 14.3
2008-02-27 08:39:15 51°10.345 2°39.301 237.2 13.2 239 14.5
2008-02-27 08:39:20 51°10.335 2°39.276 236.7 13.3 238 14.7
2008-02-27 08:39:25 51°10.326 2°39.251 237.7 13.2 239 15
2008-02-27 08:39:30 51°10.316 2°39.226 237.5 13.2 238 14.6
2008-02-27 08:39:35 51°10.307 2°39.201 237.4 13.3 239 14.7
2008-02-27 08:39:40 51°10.297 2°39.175 237 13.4 240 14.8
2008-02-27 08:39:45 51°10.288 2°39.15 238 13.4 238 15
2008-02-27 08:39:50 51°10.278 2°39.125 237.3 13.3 239 14.9
2008-02-27 08:39:55 51°10.268 2°39.1 237.2 13.4 238 14.8
2008-02-27 08:40:00 51°10.259 2°39.074 237.4 13.4 240 15
2008-02-27 08:40:05 51°10.249 2°39.049 237.9 13.4 237 14.9
2008-02-27 08:40:10 51°10.24 2°39.023 236.5 13.5 240 15.1
2008-02-27 08:40:15 51°10.23 2°38.998 237.6 13.4 239 14.7
2008-02-27 08:40:20 51°10.221 2°38.973 237.5 13.3 240 14.8
2008-02-27 08:40:25 51°10.211 2°38.947 237.5 13.4 240 15
2008-02-27 08:40:30 51°10.203 2°38.921 239.6 13.3 242 14.9
2008-02-27 08:40:35 51°10.193 2°38.896 238.6 13.5 240 15.1
2008-02-27 08:40:40 51°10.185 2°38.869 240.3 13.4 244 15
2008-02-27 08:40:45 51°10.176 2°38.844 240.5 13.3 240 14.8
2008-02-27 08:40:50 51°10.167 2°38.817 239.8 13.4 243 14.8
2008-02-27 08:40:55 51°10.158 2°38.791 240.9 13.5 242 15.1
2008-02-27 08:41:00 51°10.15 2°38.765 240.5 13.4 242 15
2008-02-27 08:41:05 51°10.141 2°38.74 240.6 13 242 15
2008-02-27 08:41:10 51°10.133 2°38.716 240.5 12 242 15
2008-02-27 08:41:15 51°10.126 2°38.695 242.1 10.9 242 14.8
2008-02-27 08:41:20 51°10.119 2°38.675 241.3 10.2 242 14.9
2008-02-27 08:41:25 51°10.113 2°38.656 242.2 9.5 242 15.1
2008-02-27 08:41:30 51°10.108 2°38.639 242.6 8.9 243 15.3
2008-02-27 08:41:35 51°10.103 2°38.623 243 8.3 242 15.2
2008-02-27 08:41:40 51°10.098 2°38.608 243.3 7.6 243 15.1
2008-02-27 08:41:45 51°10.093 2°38.594 243.5 7.2 241 14.9
2008-02-27 08:41:50 51°10.089 2°38.58 243.5 6.8 245 14.9
2008-02-27 08:41:55 51°10.085 2°38.568 244.2 6.4 242 14.9
2008-02-27 08:42:00 51°10.081 2°38.555 244.5 6.2 244 15.1
2008-02-27 08:42:05 51°10.077 2°38.544 245.2 5.9 243 15.2
2008-02-27 08:42:10 51°10.074 2°38.532 245.3 5.7 244 15.4
2008-02-27 08:42:15 51°10.07 2°38.522 245.9 5.4 241 15.4
2008-02-27 08:42:20 51°10.067 2°38.512 245.2 5.1 243 15.3
2008-02-27 08:42:25 51°10.064 2°38.502 244.5 5 243 15.5
2008-02-27 08:42:30 51°10.061 2°38.494 244.5 4.8 240 15.4
2008-02-27 08:42:35 51°10.058 2°38.485 244.1 4.5 241 15.5
2008-02-27 08:42:40 51°10.055 2°38.477 243.2 4.2 239 15
2008-02-27 08:42:45 51°10.052 2°38.469 242.6 4 241 15
2008-02-27 08:42:50 51°10.049 2°38.462 242.3 3.9 239 15
2008-02-27 08:42:55 51°10.047 2°38.455 242.1 3.8 242 15.1
2008-02-27 08:43:00 51°10.044 2°38.448 242.4 3.7 237 15.1
2008-02-27 08:43:05 51°10.041 2°38.441 242.7 3.7 240 15.3
2008-02-27 08:43:10 51°10.039 2°38.434 243 3.5 238 15.5
2008-02-27 08:43:15 51°10.036 2°38.428 243 3.4 238 15.4
2008-02-27 08:43:20 51°10.034 2°38.422 242.5 3.3 237 15.5
2008-02-27 08:43:25 51°10.031 2°38.416 242.5 3.3 237 15.6
2008-02-27 08:43:30 51°10.029 2°38.41 242.7 3.2 236 15.7
2008-02-27 08:43:35 51°10.026 2°38.405 242.2 3.2 234 15.8
2008-02-27 08:43:40 51°10.024 2°38.4 242 3 234 15.6
2008-02-27 08:43:45 51°10.022 2°38.394 241 2.9 232 15.5
2008-02-27 08:43:50 51°10.02 2°38.39 240.4 2.8 235 15.4
2008-02-27 08:43:55 51°10.017 2°38.385 240 2.8 232 15.4
2008-02-27 08:44:00 51°10.015 2°38.38 239.7 2.6 235 15.3
2008-02-27 08:44:05 51°10.013 2°38.375 239.5 2.6 233 15.4
2008-02-27 08:44:10 51°10.011 2°38.37 239.5 2.6 236 15.5
2008-02-27 08:44:15 51°10.009 2°38.366 239.8 2.5 232 15.5
2008-02-27 08:44:20 51°10.007 2°38.362 239.6 2.4 234 15.3
2008-02-27 08:44:25 51°10.005 2°38.358 239.1 2.3 232 15.1
2008-02-27 08:44:30 51°10.003 2°38.354 238.2 2.1 231 15
2008-02-27 08:44:35 51°10.001 2°38.351 238.3 2.1 230 15
2008-02-27 08:44:40 51°9.999 2°38.347 237.6 2 226 14.9
2008-02-27 08:44:45 51°9.997 2°38.344 236.9 2 228 15
2008-02-27 08:44:50 51°9.995 2°38.341 236.3 2 225 15.2
2008-02-27 08:44:55 51°9.993 2°38.338 236 2.1 220 15.3
2008-02-27 08:45:00 51°9.991 2°38.334 235.7 2.2 222 15.4
2008-02-27 08:45:05 51°9.989 2°38.331 235.7 2 225 15.3
2008-02-27 08:45:10 51°9.987 2°38.328 235 2 225 15.4
2008-02-27 08:45:15 51°9.985 2°38.325 234.8 2 227 15.4
2008-02-27 08:45:20 51°9.984 2°38.322 234.5 1.9 225 15.4
2008-02-27 08:45:25 51°9.982 2°38.319 234.3 1.9 226 15.4
2008-02-27 08:45:30 51°9.98 2°38.316 234 1.9 228 15.6
2008-02-27 08:45:35 51°9.978 2°38.313 233.7 1.9 225 15.7
2008-02-27 08:45:40 51°9.976 2°38.311 233.6 1.8 221 15.5
2008-02-27 08:45:45 51°9.975 2°38.308 233 1.8 224 15.5
2008-02-27 08:45:50 51°9.973 2°38.305 232.7 1.8 221 15.5
2008-02-27 08:45:55 51°9.971 2°38.302 232.3 1.8 227 15.5
2008-02-27 08:46:00 51°9.969 2°38.3 232 1.8 225 15.5
2008-02-27 08:46:05 51°9.968 2°38.297 231.8 1.8 226 15.6
2008-02-27 08:46:10 51°9.966 2°38.294 231.6 1.7 221 15.5
2008-02-27 08:46:15 51°9.964 2°38.292 231.5 1.7 229 15.5
2008-02-27 08:46:20 51°9.963 2°38.289 231.5 1.7 220 15.4
2008-02-27 08:46:25 51°9.961 2°38.286 231.6 1.7 228 15.5
2008-02-27 08:46:30 51°9.959 2°38.284 231.4 1.6 221 15.5
2008-02-27 08:46:35 51°9.958 2°38.281 231 1.7 226 15.5
2008-02-27 08:46:40 51°9.956 2°38.279 231.1 1.7 224 15.4
2008-02-27 08:46:45 51°9.955 2°38.276 231.1 1.7 229 15.4
2008-02-27 08:46:50 51°9.953 2°38.274 230.9 1.7 222 15.4
2008-02-27 08:46:55 51°9.951 2°38.271 230.7 1.7 224 15.3
2008-02-27 08:47:00 51°9.949 2°38.269 230.2 1.7 220 15.1
2008-02-27 08:47:05 51°9.948 2°38.267 230.9 1.6 216 15.1
2008-02-27 08:47:10 51°9.946 2°38.264 230 1.6 220 15.3
2008-02-27 08:47:15 51°9.945 2°38.262 230 1.6 220 15.2
2008-02-27 08:47:20 51°9.943 2°38.26 229.4 1.5 222 15.1
2008-02-27 08:47:25 51°9.942 2°38.258 229.5 1.6 218 15.2
2008-02-27 08:47:30 51°9.94 2°38.256 229.6 1.6 214 15.2
2008-02-27 08:47:35 51°9.938 2°38.254 229.3 1.6 215 15.3
2008-02-27 08:47:40 51°9.937 2°38.252 229.3 1.5 216 15.2
2008-02-27 08:47:45 51°9.935 2°38.25 228.9 1.5 218 15.1
2008-02-27 08:47:50 51°9.934 2°38.247 228.6 1.5 225 15.2
2008-02-27 08:47:55 51°9.932 2°38.245 228.6 1.6 219 15.2
2008-02-27 08:48:00 51°9.93 2°38.243 228.6 1.5 223 15.3
2008-02-27 08:48:05 51°9.929 2°38.241 228.4 1.5 218 15.3
2008-02-27 08:48:10 51°9.927 2°38.239 228.3 1.5 222 15.4
2008-02-27 08:48:15 51°9.925 2°38.237 228.1 1.5 216 15.3
2008-02-27 08:48:20 51°9.924 2°38.234 227.8 1.5 221 15.2
2008-02-27 08:48:25 51°9.922 2°38.233 227.9 1.6 212 15.2
2008-02-27 08:48:30 51°9.921 2°38.23 227.9 1.6 222 15.2
2008-02-27 08:48:35 51°9.919 2°38.228 227.6 1.6 214 15.1
2008-02-27 08:48:40 51°9.917 2°38.226 227.5 1.5 224 15.1
2008-02-27 08:48:45 51°9.916 2°38.224 227.5 1.6 217 15.2
2008-02-27 08:48:50 51°9.914 2°38.221 227.7 1.5 228 15.2
2008-02-27 08:48:55 51°9.913 2°38.219 227.8 1.5 220 15.1
2008-02-27 08:49:00 51°9.911 2°38.217 227.3 1.4 222 15
2008-02-27 08:49:05 51°9.91 2°38.215 227 1.4 220 15.1
2008-02-27 08:49:10 51°9.908 2°38.213 226.5 1.5 218 15
2008-02-27 08:49:15 51°9.906 2°38.211 226 1.4 219 14.9
2008-02-27 08:49:20 51°9.905 2°38.21 225.1 1.4 218 15
2008-02-27 08:49:25 51°9.903 2°38.208 224.8 1.4 211 15.1
2008-02-27 08:49:30 51°9.902 2°38.206 224 1.4 217 15.1
2008-02-27 08:49:35 51°9.9 2°38.204 223.5 1.5 214 15.1
2008-02-27 08:49:40 51°9.898 2°38.202 222.8 1.4 217 15.2
2008-02-27 08:49:45 51°9.897 2°38.2 221.9 1.4 209 15.1
2008-02-27 08:49:50 51°9.895 2°38.199 221.2 1.5 211 15.2
2008-02-27 08:49:55 51°9.893 2°38.197 220.5 1.5 209 15.1
2008-02-27 08:50:00 51°9.892 2°38.195 219.2 1.5 214 15
2008-02-27 08:50:05 51°9.89 2°38.194 218.9 1.4 206 15
2008-02-27 08:50:10 51°9.889 2°38.192 218.2 1.4 215 15
2008-02-27 08:50:15 51°9.887 2°38.191 217.5 1.4 203 15
2008-02-27 08:50:20 51°9.885 2°38.189 216.8 1.4 217 15
2008-02-27 08:50:25 51°9.883 2°38.187 216.2 1.4 212 14.9
2008-02-27 08:50:30 51°9.882 2°38.185 215.5 1.5 220 15
2008-02-27 08:50:35 51°9.88 2°38.183 215 1.8 212 15.1
2008-02-27 08:50:40 51°9.877 2°38.18 215.3 2.3 218 15
2008-02-27 08:50:45 51°9.874 2°38.177 215.9 2.8 214 15
2008-02-27 08:50:50 51°9.871 2°38.173 217.6 2.9 218 14.9
2008-02-27 08:50:55 51°9.868 2°38.169 219.1 2.9 216 14.9
2008-02-27 08:51:00 51°9.864 2°38.165 220.8 3 221 14.8
2008-02-27 08:51:05 51°9.861 2°38.16 222.7 3.1 221 14.8
2008-02-27 08:51:10 51°9.858 2°38.155 225 3.2 223 14.9
2008-02-27 08:51:15 51°9.855 2°38.15 226.9 3.1 226 14.7
2008-02-27 08:51:20 51°9.852 2°38.144 228.5 3.3 226 14.6
2008-02-27 08:51:25 51°9.849 2°38.139 230.8 3.3 229 14.8
2008-02-27 08:51:30 51°9.846 2°38.134 233.2 3.4 228 14.9
2008-02-27 08:51:35 51°9.843 2°38.128 234.8 3.3 233 14.9
2008-02-27 08:51:40 51°9.84 2°38.123 236 3.3 233 14.8
2008-02-27 08:51:45 51°9.837 2°38.117 236.9 3.3 233 14.7
2008-02-27 08:51:50 51°9.835 2°38.111 237.2 3.3 233 14.8
2008-02-27 08:51:55 51°9.832 2°38.105 237.4 3.3 233 14.8
2008-02-27 08:52:00 51°9.829 2°38.099 238.1 3.4 233 14.7
2008-02-27 08:52:05 51°9.827 2°38.093 238.8 3.5 238 14.8
2008-02-27 08:52:10 51°9.824 2°38.086 241 3.6 238 14.8
2008-02-27 08:52:15 51°9.821 2°38.079 243.1 3.7 238 14.8
2008-02-27 08:52:20 51°9.819 2°38.072 245.9 3.8 241 14.9
2008-02-27 08:52:25 51°9.816 2°38.065 247.9 3.9 244 14.8
2008-02-27 08:52:30 51°9.814 2°38.057 250.1 4.1 246 14.7
2008-02-27 08:52:35 51°9.812 2°38.048 252.3 4.2 249 14.8
2008-02-27 08:52:40 51°9.81 2°38.039 255.1 4.3 249 14.7
2008-02-27 08:52:45 51°9.808 2°38.03 256.3 4.2 251 14.8
2008-02-27 08:52:50 51°9.806 2°38.021 257.6 4.1 253 14.9
2008-02-27 08:52:55 51°9.804 2°38.013 258.7 3.9 250 15
2008-02-27 08:53:00 51°9.803 2°38.005 259 3.7 251 14.7
2008-02-27 08:53:05 51°9.801 2°37.998 258.8 3.6 252 14.8
2008-02-27 08:53:10 51°9.799 2°37.991 258.8 3.5 247 14.8
2008-02-27 08:53:15 51°9.797 2°37.983 258.8 3.4 251 14.9
2008-02-27 08:53:20 51°9.795 2°37.976 258.6 3.4 247 15
2008-02-27 08:53:25 51°9.794 2°37.97 258.5 3.3 250 14.9
2008-02-27 08:53:30 51°9.792 2°37.963 258.3 3.2 248 14.9
2008-02-27 08:53:35 51°9.791 2°37.957 258 3.1 248 14.8
2008-02-27 08:53:40 51°9.789 2°37.951 257.7 3 248 14.8
2008-02-27 08:53:45 51°9.787 2°37.945 257.5 3 245 14.7
2008-02-27 08:53:50 51°9.785 2°37.938 257.6 3.1 244 14.9
2008-02-27 08:53:55 51°9.784 2°37.932 257.1 3.1 245 14.9
2008-02-27 08:54:00 51°9.782 2°37.926 256.9 3.1 246 14.8
2008-02-27 08:54:05 51°9.78 2°37.919 256.9 3.2 248 14.8
2008-02-27 08:54:10 51°9.779 2°37.913 257.2 3.4 249 15
2008-02-27 08:54:15 51°9.777 2°37.905 258.2 3.6 251 15.1
2008-02-27 08:54:20 51°9.775 2°37.898 259 3.7 250 15.1
2008-02-27 08:54:25 51°9.774 2°37.889 260 3.8 255 15.1
2008-02-27 08:54:30 51°9.773 2°37.881 261.8 3.9 254 15
2008-02-27 08:54:35 51°9.771 2°37.872 263.4 4 256 15
2008-02-27 08:54:40 51°9.77 2°37.864 264.5 4.1 259 15.2
2008-02-27 08:54:45 51°9.769 2°37.855 264.8 4 257 15.1
2008-02-27 08:54:50 51°9.768 2°37.847 264.8 4 259 15.1
2008-02-27 08:54:55 51°9.767 2°37.838 264.8 3.9 257 14.9
2008-02-27 08:55:00 51°9.766 2°37.83 264.6 3.9 259 15
2008-02-27 08:55:05 51°9.764 2°37.821 264.3 3.9 255 14.9
2008-02-27 08:55:10 51°9.763 2°37.813 263.4 3.9 256 14.9
2008-02-27 08:55:15 51°9.761 2°37.805 262.8 4 252 15
2008-02-27 08:55:20 51°9.76 2°37.796 262.4 3.9 254 15.1
2008-02-27 08:55:25 51°9.758 2°37.788 261.9 3.9 254 15.1
2008-02-27 08:55:30 51°9.757 2°37.78 261.7 3.9 253 15.1
2008-02-27 08:55:35 51°9.756 2°37.772 261.6 3.8 255 15.2
2008-02-27 08:55:40 51°9.754 2°37.764 261.6 3.8 255 15.2
2008-02-27 08:55:45 51°9.753 2°37.756 261.6 3.8 256 15.4
2008-02-27 08:55:50 51°9.751 2°37.748 262 3.8 253 15.4
2008-02-27 08:55:55 51°9.75 2°37.74 262.4 3.9 256 15.4
2008-02-27 08:56:00 51°9.749 2°37.732 262.6 3.9 254 15.5
2008-02-27 08:56:05 51°9.747 2°37.724 263.1 3.8 256 15.5
2008-02-27 08:56:10 51°9.746 2°37.716 263.3 3.8 255 15.3
2008-02-27 08:56:15 51°9.745 2°37.708 263.1 3.7 255 15.3
2008-02-27 08:56:20 51°9.743 2°37.7 262.7 3.6 252 15.2
2008-02-27 08:56:25 51°9.742 2°37.693 262.5 3.6 254 15.2
2008-02-27 08:56:30 51°9.741 2°37.685 262.4 3.6 256 15.2
2008-02-27 08:56:35 51°9.739 2°37.677 262.2 3.7 254 15.3
2008-02-27 08:56:40 51°9.738 2°37.669 262.4 3.6 255 15.3
2008-02-27 08:56:45 51°9.737 2°37.661 262.7 3.7 253 15.2
2008-02-27 08:56:50 51°9.736 2°37.653 263.1 3.7 257 15.4
2008-02-27 08:56:55 51°9.734 2°37.646 263.2 3.7 254 15.4
2008-02-27 08:57:00 51°9.733 2°37.637 263.1 3.8 257 15.5
2008-02-27 08:57:05 51°9.732 2°37.629 263.1 3.8 255 15.6
2008-02-27 08:57:10 51°9.73 2°37.622 262.9 3.7 255 15.5
2008-02-27 08:57:15 51°9.729 2°37.614 262.6 3.7 254 15.4
2008-02-27 08:57:20 51°9.728 2°37.605 262.3 3.7 255 15.3
2008-02-27 08:57:25 51°9.726 2°37.597 262.1 3.8 254 15.4
2008-02-27 08:57:30 51°9.725 2°37.589 262 3.8 256 15.6
2008-02-27 08:57:35 51°9.723 2°37.581 261.9 3.8 254 15.6
2008-02-27 08:57:40 51°9.722 2°37.573 262 3.8 254 15.6
2008-02-27 08:57:45 51°9.72 2°37.565 261.9 3.9 252 15.7
2008-02-27 08:57:50 51°9.719 2°37.557 262.1 3.7 256 15.7
2008-02-27 08:57:55 51°9.718 2°37.55 261.9 3.7 253 15.7
2008-02-27 08:58:00 51°9.716 2°37.542 261.9 3.7 255 15.8
2008-02-27 08:58:05 51°9.715 2°37.534 261.9 3.7 253 15.8
2008-02-27 08:58:10 51°9.714 2°37.526 262.1 3.7 256 15.9
2008-02-27 08:58:15 51°9.712 2°37.518 262.2 3.7 254 16
2008-02-27 08:58:20 51°9.711 2°37.51 262.3 3.7 255 15.8
2008-02-27 08:58:25 51°9.71 2°37.503 262.3 3.7 255 15.5
2008-02-27 08:58:30 51°9.708 2°37.495 262 3.6 255 15.3
2008-02-27 08:58:35 51°9.707 2°37.487 261.9 3.7 253 15.4
2008-02-27 08:58:40 51°9.706 2°37.479 261.7 3.7 257 15.6
2008-02-27 08:58:45 51°9.704 2°37.471 262.1 3.7 255 15.7
2008-02-27 08:58:50 51°9.703 2°37.464 262.2 3.7 254 15.7
2008-02-27 08:58:55 51°9.701 2°37.456 261.9 3.7 252 15.7
2008-02-27 08:59:00 51°9.7 2°37.448 261.3 3.7 252 15.9
2008-02-27 08:59:05 51°9.698 2°37.44 261.2 3.7 253 15.9
2008-02-27 08:59:10 51°9.697 2°37.432 260.9 3.7 255 15.8
2008-02-27 08:59:15 51°9.695 2°37.424 261.1 3.8 254 15.8
2008-02-27 08:59:20 51°9.694 2°37.416 261.8 3.7 254 15.8
2008-02-27 08:59:25 51°9.693 2°37.408 262.3 3.7 257 15.8
2008-02-27 08:59:30 51°9.691 2°37.4 262.9 3.7 255 15.8
2008-02-27 08:59:35 51°9.69 2°37.392 263.3 3.7 255 16
2008-02-27 08:59:40 51°9.689 2°37.384 263.4 3.7 253 15.9
2008-02-27 08:59:45 51°9.687 2°37.377 263.4 3.6 255 15.8
2008-02-27 08:59:50 51°9.686 2°37.369 262.7 3.7 252 15.7
2008-02-27 08:59:55 51°9.685 2°37.361 262.4 3.7 255 15.7
2008-02-27 09:00:00 51°9.683 2°37.353 262.5 3.8 254 15.8
2008-02-27 09:00:05 51°9.681 2°37.345 262.7 3.7 254 15.9
2008-02-27 09:00:10 51°9.68 2°37.337 262.5 3.8 253 15.7
2008-02-27 09:00:15 51°9.679 2°37.329 262.4 3.8 256 15.9
2008-02-27 09:00:20 51°9.677 2°37.321 262.5 3.8 253 15.9
2008-02-27 09:00:25 51°9.676 2°37.313 262.6 3.8 256 16
2008-02-27 09:00:30 51°9.675 2°37.305 262.7 3.8 257 15.9
2008-02-27 09:00:35 51°9.673 2°37.297 262.7 3.8 255 15.9